createdAt,value
2022-11-16T06:19:08.012Z,18.95
2022-11-16T06:22:02.816Z,18.17
2022-11-16T06:24:50.812Z,17.06
2022-11-16T06:27:25.955Z,16.06
2022-11-16T06:30:14.814Z,15.10
2022-11-16T06:32:56.792Z,14.22
2022-11-16T06:35:51.808Z,13.47
2022-11-16T06:38:39.799Z,12.75
2022-11-16T06:41:14.957Z,12.12
2022-11-16T06:44:02.811Z,11.60
2022-11-16T06:46:37.953Z,11.12
2022-11-16T06:49:25.809Z,11.71
2022-11-16T06:52:00.935Z,14.01
2022-11-16T06:54:48.815Z,15.18
2022-11-16T06:57:23.935Z,15.42
2022-11-16T07:00:11.807Z,14.31
2022-11-16T07:02:46.944Z,13.21
2022-11-16T07:05:34.797Z,12.40
2022-11-16T07:08:10.017Z,11.79
2022-11-16T07:11:02.957Z,11.29
2022-11-16T07:13:40.963Z,10.88
2022-11-16T07:16:35.997Z,10.50
2022-11-16T07:19:18.415Z,10.16
2022-11-16T07:22:08.006Z,10.83
2022-11-16T07:24:49.992Z,13.22
2022-11-16T07:27:30.947Z,14.36
2022-11-16T07:30:19.797Z,14.00
2022-11-16T07:32:53.948Z,12.90
2022-11-16T07:35:41.792Z,12.00
2022-11-16T07:38:22.980Z,11.32
2022-11-16T07:41:11.824Z,10.87
2022-11-16T07:43:53.457Z,10.46
2022-11-16T07:46:50.011Z,10.15
2022-11-16T07:49:37.014Z,11.66
2022-11-16T07:52:17.808Z,14.65
2022-11-16T07:55:05.807Z,16.58
2022-11-16T07:57:40.212Z,17.71
2022-11-16T08:00:27.806Z,17.39
2022-11-16T08:03:02.217Z,16.85
2022-11-16T08:05:51.817Z,16.44
2022-11-16T08:08:29.504Z,16.18
2022-11-16T08:11:20.778Z,15.90
2022-11-16T08:14:02.813Z,15.66
2022-11-16T08:16:50.784Z,15.43
2022-11-16T08:19:32.226Z,15.13
2022-11-16T08:22:19.813Z,14.91
2022-11-16T08:24:54.240Z,14.78
2022-11-16T08:27:43.854Z,14.59
2022-11-16T08:30:24.781Z,14.44
2022-11-16T08:33:05.939Z,14.30
2022-11-16T08:35:46.786Z,14.19
2022-11-16T08:38:35.890Z,13.99
2022-11-16T08:41:10.362Z,13.76
2022-11-16T08:43:57.886Z,13.54
2022-11-16T08:46:32.240Z,13.31
2022-11-16T08:49:20.776Z,13.04
2022-11-16T08:52:01.798Z,12.90
2022-11-16T08:54:49.782Z,12.68
2022-11-16T08:57:24.244Z,12.53
2022-11-16T09:00:12.008Z,12.58
2022-11-16T09:02:53.858Z,12.77
2022-11-16T09:05:34.953Z,12.96
2022-11-16T09:08:18.811Z,13.09
2022-11-16T09:11:01.941Z,13.04
2022-11-16T09:13:42.789Z,13.02
2022-11-16T09:16:34.792Z,13.02
2022-11-16T09:19:29.991Z,13.14
2022-11-16T09:22:12.812Z,13.22
2022-11-16T09:25:01.786Z,13.28
2022-11-16T09:27:42.794Z,13.16
2022-11-16T09:30:24.031Z,12.96
2022-11-16T09:33:05.829Z,12.81
2022-11-16T09:35:48.789Z,12.74
2022-11-16T09:39:03.330Z,12.52
2022-11-16T09:41:51.948Z,12.15
2022-11-16T09:44:52.046Z,11.71
2022-11-16T09:47:37.773Z,11.28
2022-11-16T09:50:58.104Z,10.87
2022-11-16T09:53:54.828Z,11.96
2022-11-16T09:56:38.790Z,14.29
2022-11-16T09:59:49.980Z,15.41
2022-11-16T10:02:42.266Z,15.52
2022-11-16T10:05:37.790Z,14.18
2022-11-16T10:08:27.031Z,13.11
2022-11-16T10:11:40.789Z,12.32
2022-11-16T10:14:21.078Z,11.68
2022-11-16T10:17:17.982Z,11.24
2022-11-16T10:20:05.762Z,10.84
2022-11-16T10:22:47.793Z,10.54
2022-11-16T10:25:41.531Z,10.25
2022-11-16T10:29:03.788Z,9.98
2022-11-16T10:32:10.770Z,11.17
2022-11-16T10:35:02.805Z,13.76
2022-11-16T10:37:38.938Z,14.91
2022-11-16T10:40:28.771Z,15.20
2022-11-16T10:43:19.164Z,14.14
2022-11-16T10:46:31.771Z,13.00
2022-11-16T10:49:28.704Z,12.15
2022-11-16T10:52:17.764Z,11.68
2022-11-16T10:54:58.786Z,11.57
2022-11-16T10:58:09.776Z,11.60
2022-11-16T11:00:59.010Z,11.66
2022-11-16T11:03:38.920Z,11.82
2022-11-16T11:06:29.764Z,13.09
2022-11-16T11:09:43.472Z,16.08
2022-11-16T11:12:45.770Z,17.43
2022-11-16T11:15:31.940Z,16.48
2022-11-16T11:18:41.753Z,15.57
2022-11-16T11:21:25.764Z,15.04
2022-11-16T11:24:42.796Z,14.85
2022-11-16T11:27:30.789Z,14.75
2022-11-16T11:30:13.142Z,14.73
2022-11-16T11:32:56.415Z,14.76
2022-11-16T11:35:46.775Z,14.84
2022-11-16T16:08:12.503Z,20.63
2022-11-16T16:11:27.008Z,20.27
2022-11-16T16:14:20.537Z,19.53
2022-11-16T16:17:09.715Z,18.89
2022-11-16T16:19:56.553Z,18.27
2022-11-16T16:22:51.889Z,17.60
2022-11-16T16:25:44.700Z,17.06
2022-11-16T16:28:22.809Z,16.55
2022-11-16T16:31:10.818Z,16.06
2022-11-16T16:33:46.078Z,15.67
2022-11-16T16:36:36.825Z,15.41
2022-11-16T16:39:12.116Z,15.21
2022-11-16T16:42:01.713Z,15.01
2022-11-16T16:44:43.636Z,14.82
2022-11-16T16:47:28.494Z,14.64
2022-11-16T16:50:10.841Z,14.47
2022-11-16T16:52:53.699Z,14.36
2022-11-16T16:55:37.784Z,14.29
2022-11-16T16:58:20.632Z,14.24
2022-11-16T17:01:01.871Z,14.17
2022-11-16T17:03:43.694Z,14.21
2022-11-16T17:06:32.686Z,15.42
2022-11-16T17:09:29.712Z,18.36
2022-11-16T17:12:18.513Z,20.07
2022-11-16T17:14:53.657Z,19.97
2022-11-16T17:17:43.498Z,18.32
2022-11-16T17:20:18.663Z,16.74
2022-11-16T17:23:06.658Z,15.47
2022-11-16T17:25:44.643Z,14.45
2022-11-16T17:28:32.747Z,13.54
2022-11-16T17:31:12.727Z,12.68
2022-11-16T17:34:00.507Z,11.95
2022-11-16T17:36:42.588Z,11.37
2022-11-16T17:39:31.541Z,10.82
2022-11-16T17:42:12.727Z,10.31
2022-11-16T17:44:56.494Z,9.88
2022-11-16T17:47:40.739Z,9.47
2022-11-16T17:50:22.451Z,9.13
2022-11-16T17:53:10.538Z,8.80
2022-11-16T17:55:45.931Z,8.54
2022-11-16T17:58:33.503Z,8.27
2022-11-16T18:01:18.586Z,8.85
2022-11-16T18:03:59.590Z,11.49
2022-11-16T18:06:43.496Z,12.91
2022-11-16T18:09:25.728Z,13.19
2022-11-16T18:12:07.501Z,12.08
2022-11-16T18:15:26.416Z,11.00
2022-11-16T18:17:56.035Z,10.21
2022-11-16T18:20:45.530Z,9.67
2022-11-16T18:23:27.673Z,9.24
2022-11-16T18:26:08.707Z,8.96
2022-11-16T18:28:55.496Z,8.84
2022-11-16T18:31:36.639Z,8.58
2022-11-16T18:34:26.763Z,8.25
2022-11-16T18:37:12.078Z,8.15
2022-11-16T18:39:57.043Z,10.29
2022-11-16T18:42:37.657Z,12.21
2022-11-16T18:45:18.605Z,12.69
2022-11-16T18:48:03.642Z,11.53
